createdAt,value
2022-11-27T00:00:15.505Z,101998.98
2022-11-27T00:05:39.540Z,101997.89
2022-11-27T00:10:44.510Z,101997.10
2022-11-27T00:15:48.800Z,101993.02
2022-11-27T00:20:51.708Z,101997.17
2022-11-27T00:25:54.587Z,101996.48
2022-11-27T00:31:05.017Z,101994.09
2022-11-27T00:36:09.832Z,101989.74
2022-11-27T00:41:22.940Z,101989.75
2022-11-27T00:46:29.450Z,101990.91
2022-11-27T00:51:32.615Z,101993.38
2022-11-27T00:56:38.210Z,101998.46
2022-11-27T01:01:42.974Z,102000.54
2022-11-27T01:06:47.381Z,101999.95
2022-11-27T01:11:50.271Z,102000.91
2022-11-27T01:16:53.094Z,101999.85
2022-11-27T01:21:56.165Z,101999.91
2022-11-27T01:26:59.062Z,102000.81
2022-11-27T01:32:01.942Z,101997.58
2022-11-27T01:37:05.067Z,101996.59
2022-11-27T01:42:11.292Z,102003.48
2022-11-27T01:47:18.105Z,102006.86
2022-11-27T01:52:30.190Z,102013.44
2022-11-27T01:57:38.957Z,102010.81
2022-11-27T02:02:42.487Z,102010.02
2022-11-27T02:07:46.194Z,102006.59
2022-11-27T02:13:06.404Z,102003.92
2022-11-27T02:19:03.087Z,102006.73
2022-11-27T02:24:55.667Z,102016.88
2022-11-27T02:30:00.000Z,102015.92
2022-11-27T02:35:20.574Z,102023.89
2022-11-27T02:40:42.683Z,102034.94
2022-11-27T02:45:48.527Z,102034.84
2022-11-27T02:50:51.429Z,102031.46
2022-11-27T02:55:56.415Z,102035.95
2022-11-27T03:00:59.226Z,102035.27
2022-11-27T03:06:09.256Z,102033.89
2022-11-27T03:11:15.042Z,102038.36
2022-11-27T03:17:06.217Z,102029.84
2022-11-27T03:22:09.109Z,102024.27
2022-11-27T03:27:15.044Z,102024.02
2022-11-27T03:32:17.997Z,102025.26
2022-11-27T03:37:26.045Z,102025.63
2022-11-27T03:43:12.612Z,102027.70
2022-11-27T03:49:03.009Z,102029.84
2022-11-27T03:54:24.320Z,102026.46
2022-11-27T03:59:32.846Z,102033.61
2022-11-27T04:04:35.653Z,102035.63
2022-11-27T04:09:38.430Z,102037.10
2022-11-27T04:14:41.648Z,102037.56
2022-11-27T04:19:45.024Z,102038.45
2022-11-27T04:24:47.897Z,102032.73
2022-11-27T04:29:50.925Z,102034.71
2022-11-27T04:34:53.767Z,102037.42
2022-11-27T04:39:56.698Z,102042.16
2022-11-27T04:44:59.620Z,102041.77
2022-11-27T04:50:02.479Z,102037.35
2022-11-27T04:55:08.075Z,102036.34
2022-11-27T05:00:12.143Z,102033.35
2022-11-27T05:05:15.606Z,102030.02
2022-11-27T05:10:18.608Z,102028.48
2022-11-27T05:15:21.468Z,102026.43
2022-11-27T05:20:44.300Z,102028.49
2022-11-27T05:25:47.237Z,102025.64
2022-11-27T05:30:50.244Z,102020.44
2022-11-27T05:35:53.648Z,102023.36
2022-11-27T05:40:57.213Z,102019.52
2022-11-27T05:46:00.425Z,102019.02
2022-11-27T05:51:03.879Z,102014.29
2022-11-27T05:56:09.921Z,102018.88
2022-11-27T06:01:13.870Z,102021.34
2022-11-27T06:06:19.138Z,102022.73
2022-11-27T06:11:24.608Z,102022.39
2022-11-27T06:16:28.106Z,102019.55
2022-11-27T06:21:33.574Z,102009.83
2022-11-27T06:26:36.450Z,102007.85
2022-11-27T06:31:39.463Z,102011.96
2022-11-27T06:36:42.478Z,102022.60
2022-11-27T06:41:46.944Z,102024.09
2022-11-27T06:46:49.820Z,102021.46
2022-11-27T06:51:53.282Z,102026.17
2022-11-27T06:56:56.121Z,102027.71
2022-11-27T07:02:00.316Z,102035.30
2022-11-27T07:07:03.362Z,102029.70
2022-11-27T07:12:06.702Z,102028.67
2022-11-27T07:17:09.559Z,102015.85
2022-11-27T07:22:12.461Z,102013.34
2022-11-27T07:27:15.585Z,102010.13
2022-11-27T07:32:18.727Z,102009.21
2022-11-27T07:37:21.750Z,102012.08
2022-11-27T07:42:39.927Z,102004.85
2022-11-27T07:47:42.824Z,102013.12
2022-11-27T07:52:45.799Z,102006.48
2022-11-27T07:57:48.569Z,102007.15
2022-11-27T08:02:51.387Z,102008.95
2022-11-27T08:07:54.826Z,102013.21
2022-11-27T08:12:59.281Z,102015.91
2022-11-27T08:18:02.123Z,102018.11
2022-11-27T08:23:05.131Z,102019.17
2022-11-27T08:28:07.933Z,102016.81
2022-11-27T08:33:13.295Z,102009.08
2022-11-27T08:38:16.234Z,102008.64
2022-11-27T08:43:19.067Z,102008.51
2022-11-27T08:48:22.187Z,102013.88
2022-11-27T08:53:25.237Z,102022.73
2022-11-27T08:58:28.053Z,102030.66
2022-11-27T09:03:31.681Z,102038.20
2022-11-27T09:08:34.581Z,102042.19
2022-11-27T09:13:37.751Z,102038.27
2022-11-27T09:18:40.944Z,102037.66
2022-11-27T09:23:46.166Z,102032.99
2022-11-27T09:28:49.050Z,102031.42
2022-11-27T09:33:51.920Z,102025.27
2022-11-27T09:38:55.203Z,102022.23
2022-11-27T09:44:01.234Z,102019.52
2022-11-27T09:49:07.895Z,102020.25
2022-11-27T09:54:19.780Z,102016.95
2022-11-27T09:59:28.477Z,102007.83
2022-11-27T10:04:51.022Z,102005.39
2022-11-27T10:10:20.106Z,102000.86
2022-11-27T10:15:26.407Z,101991.35
2022-11-27T10:20:46.960Z,101994.19
2022-11-27T10:25:59.036Z,101991.30
2022-11-27T10:31:09.416Z,101989.15
2022-11-27T10:36:38.462Z,101989.83
2022-11-27T10:41:49.944Z,101983.26
2022-11-27T10:47:01.626Z,101979.65
2022-11-27T10:52:04.615Z,101978.18
2022-11-27T10:57:44.912Z,101970.66
2022-11-27T11:02:47.860Z,101972.34
2022-11-27T11:08:01.108Z,101971.48
2022-11-27T11:13:14.318Z,101973.58
2022-11-27T11:18:28.926Z,101970.45
2022-11-27T11:23:39.389Z,101965.14
2022-11-27T11:28:50.925Z,101960.27
2022-11-27T11:33:59.626Z,101958.73
2022-11-27T11:39:02.378Z,101952.89
2022-11-27T11:44:05.661Z,101956.02
2022-11-27T11:49:25.080Z,101956.63
2022-11-27T11:54:44.544Z,101958.52
2022-11-27T12:00:00.346Z,101952.44
2022-11-27T12:05:50.335Z,101950.30
2022-11-27T12:11:33.278Z,101953.23
2022-11-27T12:17:23.025Z,101953.15
2022-11-27T12:22:40.321Z,101946.48
2022-11-27T12:28:00.608Z,101942.58
2022-11-27T12:33:27.106Z,101936.81
2022-11-27T12:39:15.350Z,101935.61
2022-11-27T12:44:51.093Z,101935.25
2022-11-27T12:50:26.542Z,101930.83
2022-11-27T12:55:33.387Z,101932.64
2022-11-27T13:00:39.484Z,101929.77
2022-11-27T13:05:46.702Z,101928.66
2022-11-27T13:11:01.150Z,101925.33
2022-11-27T13:16:07.500Z,101924.03
2022-11-27T13:21:22.776Z,101924.38
2022-11-27T13:26:30.463Z,101922.27
2022-11-27T13:31:37.762Z,101916.76
2022-11-27T13:36:42.840Z,101912.23
2022-11-27T13:41:45.692Z,101910.56
2022-11-27T13:46:49.260Z,101907.98
2022-11-27T13:51:52.133Z,101911.48
2022-11-27T13:56:54.952Z,101912.82
2022-11-27T14:02:04.399Z,101913.20
2022-11-27T14:07:11.277Z,101917.67
2022-11-27T14:12:31.556Z,101912.98
2022-11-27T14:17:42.392Z,101918.42
2022-11-27T14:23:10.507Z,101916.90
2022-11-27T14:28:27.422Z,101909.20
2022-11-27T14:33:59.647Z,101902.50
2022-11-27T14:38:58.840Z,101903.31
2022-11-27T14:44:06.681Z,101901.23
2022-11-27T14:49:19.308Z,101901.29
2022-11-27T14:54:30.891Z,101899.96
2022-11-27T14:59:33.771Z,101895.73
2022-11-27T15:04:38.891Z,101899.39
2022-11-27T15:09:49.857Z,101888.98
2022-11-27T15:15:06.501Z,101887.27
2022-11-27T15:20:16.772Z,101887.91
2022-11-27T15:26:08.411Z,101888.92
2022-11-27T15:31:35.057Z,101889.27
2022-11-27T15:36:47.586Z,101891.04
2022-11-27T15:41:56.548Z,101891.59
2022-11-27T15:47:03.747Z,101890.74
2022-11-27T15:52:07.640Z,101888.56
2022-11-27T15:57:11.053Z,101890.48
2022-11-27T16:02:17.726Z,101888.34
2022-11-27T16:07:22.166Z,101886.97
2022-11-27T16:12:25.087Z,101885.23
2022-11-27T16:17:28.185Z,101889.87
2022-11-27T16:22:31.703Z,101881.06
2022-11-27T16:27:35.184Z,101873.85
2022-11-27T16:32:39.404Z,101868.35
2022-11-27T16:37:42.537Z,101864.47
2022-11-27T16:42:46.984Z,101862.01
2022-11-27T16:47:49.806Z,101862.44
2022-11-27T16:52:54.600Z,101861.02
2022-11-27T16:57:57.791Z,101856.52
2022-11-27T17:03:00.632Z,101852.83
2022-11-27T17:08:04.270Z,101853.02
2022-11-27T17:13:07.319Z,101853.58
2022-11-27T17:18:10.469Z,101852.58
2022-11-27T17:23:13.321Z,101850.95
2022-11-27T17:28:16.087Z,101848.45
2022-11-27T17:33:18.961Z,101846.30
2022-11-27T17:38:22.240Z,101843.71
2022-11-27T17:43:28.190Z,101842.21
2022-11-27T17:48:30.974Z,101834.79
2022-11-27T17:53:34.047Z,101832.49
2022-11-27T17:58:36.989Z,101832.97
2022-11-27T18:03:41.958Z,101833.23
2022-11-27T18:08:45.957Z,101831.31
2022-11-27T18:13:49.237Z,101832.10
2022-11-27T18:18:54.294Z,101824.28
2022-11-27T18:29:20.346Z,101812.11
2022-11-27T18:34:23.243Z,101812.77
2022-11-27T18:39:27.461Z,101806.77
2022-11-27T18:44:31.151Z,101807.47
2022-11-27T18:49:34.136Z,101807.28
2022-11-27T18:54:38.171Z,101812.24
2022-11-27T18:59:43.797Z,101810.67
2022-11-27T19:04:46.987Z,101809.36
2022-11-27T19:09:49.787Z,101813.00
2022-11-27T19:14:53.257Z,101815.45
2022-11-27T19:19:56.153Z,101811.96
2022-11-27T19:24:59.011Z,101807.96
2022-11-27T19:30:02.069Z,101806.15
2022-11-27T19:35:07.463Z,101804.50
2022-11-27T19:40:12.860Z,101800.80
2022-11-27T19:45:15.720Z,101804.48
2022-11-27T19:50:18.926Z,101802.55
2022-11-27T19:55:21.765Z,101800.63
2022-11-27T20:00:25.472Z,101799.94
2022-11-27T20:05:28.306Z,101797.28
2022-11-27T20:10:31.366Z,101796.54
2022-11-27T20:15:34.512Z,101793.50
2022-11-27T20:20:37.418Z,101787.02
2022-11-27T20:25:41.944Z,101786.00
2022-11-27T20:30:44.873Z,101785.30
2022-11-27T20:35:47.667Z,101784.38
2022-11-27T20:40:54.178Z,101779.80
2022-11-27T20:45:57.366Z,101783.08
2022-11-27T20:51:13.765Z,101785.46
2022-11-27T20:56:19.549Z,101787.92
2022-11-27T21:01:27.343Z,101790.40
2022-11-27T21:06:31.794Z,101789.27
2022-11-27T21:11:36.214Z,101793.90
2022-11-27T21:16:42.058Z,101792.29
2022-11-27T21:21:45.286Z,101788.20
2022-11-27T21:26:49.011Z,101787.77
2022-11-27T21:31:54.109Z,101788.41
2022-11-27T21:36:57.080Z,101791.00
2022-11-27T21:41:59.867Z,101790.18
2022-11-27T21:47:05.012Z,101790.88
2022-11-27T21:52:07.913Z,101785.11
2022-11-27T21:57:12.318Z,101787.23
2022-11-27T22:02:15.955Z,101781.46
2022-11-27T22:07:19.311Z,101784.46
2022-11-27T22:12:23.537Z,101782.49
2022-11-27T22:17:26.757Z,101774.44
2022-11-27T22:22:29.689Z,101773.21
2022-11-27T22:27:32.584Z,101767.77
2022-11-27T22:32:35.453Z,101763.30
2022-11-27T22:37:38.622Z,101764.30
2022-11-27T22:42:41.447Z,101761.02
2022-11-27T22:47:44.333Z,101757.34
2022-11-27T22:52:47.276Z,101750.42
2022-11-27T22:57:50.146Z,101747.88
2022-11-27T23:02:52.955Z,101745.23
2022-11-27T23:07:55.899Z,101744.90
2022-11-27T23:13:01.323Z,101743.58
2022-11-27T23:18:04.518Z,101739.89
2022-11-27T23:23:07.314Z,101740.12
2022-11-27T23:28:10.152Z,101736.09
2022-11-27T23:33:13.091Z,101735.71
2022-11-27T23:38:17.987Z,101731.29
2022-11-27T23:43:20.898Z,101725.76
2022-11-27T23:48:24.142Z,101725.83
2022-11-27T23:53:28.660Z,101719.55
2022-11-27T23:58:31.801Z,101720.34
